Time;durP1;ratioP1;P1;durP2;ratioP2;P2;SDS_P1;SDS_P2;PMS_P1;PMS_P2;Temp;Humidity;BMP_temperature;BMP_pressure;BME280_temperature;BME280_humidity;BME280_pressure;Samples;Min_cycle;Max_cycle;Signal;HPM_P1;HPM_P2
2022/05/06 00:00:55;;;;;;;35.93;27.57;;;;;;;12.95;76.26;102412.72;5192553;28;20042;-78
2022/05/06 00:03:27;;;;;;;35.90;26.90;;;;;;;13.26;74.75;102410.47;5192295;28;20105;-77
2022/05/06 00:05:58;;;;;;;42.53;28.30;;;;;;;12.98;76.00;102411.72;5192481;28;20133;-78
2022/05/06 00:08:29;;;;;;;30.27;26.10;;;;;;;12.99;75.60;102392.38;5192130;28;20102;-78
2022/05/06 00:11:00;;;;;;;33.40;25.63;;;;;;;13.16;74.84;102402.16;5192233;28;20023;-77
2022/05/06 00:13:32;;;;;;;34.73;26.43;;;;;;;13.24;74.64;102407.91;5199807;28;20030;-77
2022/05/06 00:16:03;;;;;;;33.80;24.77;;;;;;;13.13;75.13;102410.16;5226599;28;20448;-78
2022/05/06 00:18:35;;;;;;;35.33;26.47;;;;;;;13.10;75.16;102411.16;5193394;28;20104;-78
2022/05/06 00:21:06;;;;;;;36.50;27.80;;;;;;;13.04;75.35;102408.78;5197476;28;20014;-77
2022/05/06 00:23:37;;;;;;;34.77;26.07;;;;;;;13.12;75.14;102411.97;5213202;28;20096;-78
2022/05/06 00:26:09;;;;;;;29.53;25.17;;;;;;;13.10;75.57;102410.31;5226988;28;20037;-78
2022/05/06 00:28:41;;;;;;;38.50;27.60;;;;;;;13.15;75.30;102418.84;5210860;28;20030;-78
2022/05/06 00:31:12;;;;;;;36.87;27.27;;;;;;;13.01;75.22;102407.19;5202927;28;20022;-78
2022/05/06 00:33:43;;;;;;;35.57;25.40;;;;;;;13.09;75.06;102413.88;5193612;28;20034;-76
2022/05/06 00:36:15;;;;;;;30.37;24.97;;;;;;;12.62;77.42;102408.03;5190571;28;20028;-78
2022/05/06 00:38:46;;;;;;;36.83;26.60;;;;;;;12.67;77.39;102411.31;5191543;28;20026;-77
2022/05/06 00:41:18;;;;;;;29.37;25.90;;;;;;;12.34;78.46;102416.16;5193003;28;20063;-77
2022/05/06 00:43:49;;;;;;;34.30;27.20;;;;;;;12.13;79.39;102414.44;5190873;28;20030;-78
2022/05/06 00:46:21;;;;;;;39.50;29.03;;;;;;;12.29;78.94;102415.50;5192075;28;20551;-78
2022/05/06 00:48:55;;;;;;;36.63;28.60;;;;;;;12.07;79.90;102410.25;5192053;28;20046;-78
2022/05/06 00:51:26;;;;;;;29.15;24.73;;;;;;;12.44;77.98;102410.53;5191177;28;20030;-78
2022/05/06 00:53:57;;;;;;;36.13;28.20;;;;;;;12.10;79.15;102415.41;5190712;28;20033;-78
2022/05/06 00:56:28;;;;;;;34.43;26.63;;;;;;;12.46;78.17;102406.06;5188128;28;20062;-78
2022/05/06 00:59:00;;;;;;;37.63;26.67;;;;;;;12.48;78.17;102409.47;5190349;28;20545;-78
2022/05/06 01:01:31;;;;;;;33.70;27.13;;;;;;;12.51;77.76;102409.34;5191206;28;20966;-78
2022/05/06 01:04:06;;;;;;;36.20;26.47;;;;;;;12.25;79.05;102419.19;5191049;28;20061;-77
2022/05/06 01:06:38;;;;;;;32.87;25.83;;;;;;;12.47;77.50;102402.50;5189185;28;20041;-77
2022/05/06 01:09:15;;;;;;;35.77;27.13;;;;;;;12.26;78.60;102413.00;5191062;28;20026;-77
2022/05/06 01:11:46;;;;;;;35.83;27.40;;;;;;;12.44;77.93;102421.03;5190610;28;20401;-78
2022/05/06 01:14:32;;;;;;;34.80;26.63;;;;;;;12.51;77.71;102419.88;5203156;28;20100;-78
2022/05/06 01:17:04;;;;;;;37.20;27.10;;;;;;;12.38;78.30;102423.91;5209110;28;20032;-77
2022/05/06 01:19:35;;;;;;;35.17;26.87;;;;;;;12.09;80.02;102425.09;5191727;28;20112;-77
2022/05/06 01:22:06;;;;;;;39.00;27.93;;;;;;;11.98;80.30;102416.75;5191836;28;20026;-78
2022/05/06 01:24:38;;;;;;;36.97;26.57;;;;;;;11.91;81.03;102421.38;5195092;28;20034;-78
2022/05/06 01:27:15;;;;;;;33.43;26.47;;;;;;;12.19;79.67;102419.44;5217439;28;20026;-74
2022/05/06 01:29:47;;;;;;;36.50;27.73;;;;;;;12.21;79.58;102421.09;5214995;28;20117;-78
2022/05/06 01:32:22;;;;;;;37.93;28.57;;;;;;;12.32;79.00;102420.63;5214341;28;20061;-78
2022/05/06 01:34:55;;;;;;;38.08;27.77;;;;;;;12.19;79.42;102424.69;5207010;28;20040;-78
2022/05/06 01:37:29;;;;;;;34.03;26.13;;;;;;;12.29;78.94;102423.38;5203841;28;20758;-78
2022/05/06 01:40:02;;;;;;;39.75;28.65;;;;;;;12.22;79.22;102422.78;5207807;28;20022;-77
2022/05/06 01:42:36;;;;;;;42.97;30.83;;;;;;;12.16;79.79;102425.69;5207379;28;20029;-78
2022/05/06 01:45:12;;;;;;;38.75;29.05;;;;;;;12.22;79.39;102416.66;5209678;28;20538;-78
2022/05/06 01:47:45;;;;;;;38.80;29.93;;;;;;;12.10;79.89;102421.53;5205988;28;20034;-78
2022/05/06 01:50:19;;;;;;;38.37;29.20;;;;;;;12.04;80.33;102418.28;5196201;28;20033;-75
2022/05/06 01:52:51;;;;;;;37.55;30.02;;;;;;;11.82;81.37;102425.22;5206429;28;20026;-76
2022/05/06 01:55:23;;;;;;;35.03;27.70;;;;;;;12.21;79.37;102425.47;5206693;28;20547;-76
2022/05/06 01:57:54;;;;;;;39.07;30.60;;;;;;;11.91;80.66;102421.38;5200610;28;20037;-76
2022/05/06 02:00:25;;;;;;;40.40;30.17;;;;;;;11.94;80.38;102431.75;5206341;28;20022;-77
2022/05/06 02:02:57;;;;;;;40.30;29.43;;;;;;;11.79;81.38;102425.38;5214125;28;20550;-77
2022/05/06 02:05:28;;;;;;;38.97;29.23;;;;;;;11.42;82.35;102425.03;5191123;28;20092;-77
2022/05/06 02:07:59;;;;;;;38.50;29.47;;;;;;;11.50;83.24;102427.38;5189097;28;20038;-73
2022/05/06 02:10:31;;;;;;;36.93;30.00;;;;;;;11.86;81.10;102421.59;5190528;28;20441;-77
2022/05/06 02:13:03;;;;;;;39.03;29.27;;;;;;;11.54;82.60;102415.81;5193898;28;20037;-77
2022/05/06 02:15:34;;;;;;;41.17;29.73;;;;;;;11.75;81.68;102418.50;5226437;28;20057;-77
2022/05/06 02:18:06;;;;;;;40.37;30.70;;;;;;;11.85;81.29;102419.03;5225267;28;20030;-76
2022/05/06 02:20:37;;;;;;;40.33;30.93;;;;;;;11.81;81.51;102420.91;5196094;28;20387;-77
2022/05/06 02:23:08;;;;;;;38.80;30.07;;;;;;;11.50;82.37;102407.22;5196678;28;20033;-76
2022/05/06 02:25:40;;;;;;;43.30;30.63;;;;;;;11.50;83.16;102419.50;5205429;28;20030;-76
2022/05/06 02:28:14;;;;;;;37.07;29.37;;;;;;;11.62;82.56;102424.25;5211938;28;20453;-78
2022/05/06 02:33:35;;;;;;;37.83;28.07;;;;;;;11.23;83.91;102424.84;5197324;28;20069;-77
2022/05/06 02:36:07;;;;;;;38.43;28.80;;;;;;;11.46;83.38;102433.63;5212683;28;20049;-77
2022/05/06 02:38:38;;;;;;;37.73;29.43;;;;;;;11.37;83.76;102430.44;5212353;28;20068;-76
2022/05/06 02:41:10;;;;;;;34.13;29.47;;;;;;;11.50;82.57;102435.22;5210002;28;20026;-77
2022/05/06 02:43:42;;;;;;;34.03;27.80;;;;;;;11.45;82.68;102429.31;5194096;28;20117;-77
2022/05/06 02:46:14;;;;;;;32.57;27.17;;;;;;;11.53;82.33;102429.88;5192868;28;20105;-78
2022/05/06 02:48:45;;;;;;;35.97;27.80;;;;;;;11.27;83.71;102429.09;5194464;28;20026;-77
2022/05/06 02:51:16;;;;;;;36.73;27.47;;;;;;;11.55;82.13;102435.91;5205579;28;20026;-74
2022/05/06 02:53:47;;;;;;;33.73;27.13;;;;;;;11.62;81.52;102439.97;5208138;28;20033;-77
2022/05/06 02:56:19;;;;;;;32.97;26.67;;;;;;;11.33;82.64;102447.19;5201649;28;20046;-78
2022/05/06 02:58:50;;;;;;;32.00;26.10;;;;;;;11.47;81.87;102443.19;5201877;28;20065;-79
2022/05/06 03:01:21;;;;;;;28.83;23.97;;;;;;;11.62;80.66;102436.53;5204560;28;20511;-77
2022/05/06 03:03:52;;;;;;;30.57;25.07;;;;;;;11.23;82.24;102437.97;5218560;28;20073;-77
2022/05/06 03:06:24;;;;;;;30.20;23.50;;;;;;;11.38;81.53;102437.38;5199029;28;20403;-77
2022/05/06 03:08:55;;;;;;;29.17;23.93;;;;;;;11.44;81.27;102435.44;5209934;28;20018;-77
2022/05/06 03:11:26;;;;;;;28.43;24.17;;;;;;;10.98;82.95;102438.84;5195019;28;20034;-77
2022/05/06 03:13:57;;;;;;;27.57;22.27;;;;;;;11.35;81.33;102434.91;5194584;28;20034;-77
2022/05/06 03:16:29;;;;;;;30.03;23.10;;;;;;;11.37;81.14;102435.69;5222811;28;20021;-77
2022/05/06 03:19:00;;;;;;;30.53;23.73;;;;;;;10.93;83.20;102432.91;5228274;28;20033;-77
2022/05/06 03:21:31;;;;;;;25.50;22.53;;;;;;;10.95;83.48;102431.97;5201116;28;20030;-77
2022/05/06 03:24:03;;;;;;;32.77;23.97;;;;;;;11.00;83.93;102429.16;5214176;28;20042;-77
2022/05/06 03:26:34;;;;;;;37.83;23.87;;;;;;;11.19;82.66;102431.97;5213472;28;20080;-77
2022/05/06 03:29:06;;;;;;;26.60;23.03;;;;;;;11.29;82.12;102427.25;5224193;28;20037;-77
2022/05/06 03:31:37;;;;;;;27.03;22.47;;;;;;;11.13;82.78;102429.59;5205643;28;20795;-77
2022/05/06 03:34:09;;;;;;;27.93;22.73;;;;;;;11.27;82.29;102428.22;5223645;28;20034;-77
2022/05/06 03:36:41;;;;;;;27.40;22.90;;;;;;;11.23;82.31;102430.97;5199381;28;20481;-78
2022/05/06 03:39:13;;;;;;;32.10;22.77;;;;;;;11.26;82.04;102429.97;5213584;28;20646;-77
2022/05/06 03:41:44;;;;;;;26.57;21.30;;;;;;;11.04;83.18;102424.69;5205698;28;20547;-76
2022/05/06 03:44:15;;;;;;;28.03;22.37;;;;;;;11.25;81.96;102433.53;5202459;28;20042;-77
2022/05/06 03:46:46;;;;;;;28.10;22.40;;;;;;;10.84;84.45;102434.97;5213346;28;20030;-76
2022/05/06 03:49:18;;;;;;;28.37;21.80;;;;;;;11.06;83.18;102435.97;5211923;28;20025;-77
2022/05/06 03:51:49;;;;;;;28.13;21.23;;;;;;;11.01;83.75;102436.16;5198952;28;20042;-76
2022/05/06 03:54:21;;;;;;;26.87;21.33;;;;;;;11.12;82.64;102438.34;5210779;28;20022;-77
2022/05/06 03:56:53;;;;;;;24.80;20.90;;;;;;;11.06;83.34;102422.84;5202509;28;20104;-76
2022/05/06 03:59:24;;;;;;;28.90;21.80;;;;;;;11.12;83.08;102435.72;5211745;28;20101;-77
2022/05/06 04:01:55;;;;;;;31.23;22.07;;;;;;;11.13;82.96;102430.47;5198012;28;20105;-77
2022/05/06 04:04:28;;;;;;;25.70;21.67;;;;;;;11.19;83.21;102445.09;5212728;28;20022;-77
2022/05/06 04:06:59;;;;;;;30.37;23.23;;;;;;;11.11;84.04;102431.41;5193243;28;20034;-72
2022/05/06 04:09:31;;;;;;;25.23;20.73;;;;;;;11.03;84.16;102431.69;5198893;28;20075;-77
2022/05/06 04:12:03;;;;;;;26.80;20.33;;;;;;;11.04;83.71;102429.91;5208397;28;20144;-78
2022/05/06 04:14:34;;;;;;;22.07;18.77;;;;;;;11.13;82.87;102440.09;5210875;28;20041;-77
2022/05/06 04:17:06;;;;;;;22.67;18.70;;;;;;;10.97;83.85;102445.03;5196279;28;20034;-77
2022/05/06 04:19:37;;;;;;;21.73;17.57;;;;;;;11.06;83.11;102449.94;5222965;28;20018;-77
2022/05/06 04:24:58;;;;;;;42.30;16.87;;;;;;;10.98;83.18;102442.34;5210908;28;20030;-76
2022/05/06 04:27:31;;;;;;;28.20;18.37;;;;;;;10.90;84.36;102433.91;5211202;28;20500;-77
2022/05/06 04:30:02;;;;;;;27.37;18.60;;;;;;;10.77;84.86;102443.94;5205403;28;20081;-76
2022/05/06 04:32:34;;;;;;;27.93;19.07;;;;;;;10.58;86.21;102454.22;5209824;28;20505;-77
2022/05/06 04:35:06;;;;;;;26.60;19.30;;;;;;;10.55;86.88;102449.06;5205323;28;20035;-77
2022/05/06 04:37:37;;;;;;;28.90;19.50;;;;;;;10.84;85.50;102450.69;5194268;28;20040;-76
2022/05/06 04:40:09;;;;;;;23.27;18.50;;;;;;;10.87;84.84;102455.81;5209158;28;20022;-76
2022/05/06 04:42:40;;;;;;;20.37;16.67;;;;;;;10.88;84.80;102460.16;5198261;28;20133;-77
2022/05/06 04:45:11;;;;;;;22.13;16.13;;;;;;;10.71;84.95;102462.50;5208544;28;20030;-78
2022/05/06 04:47:42;;;;;;;31.40;17.50;;;;;;;10.77;84.85;102470.16;5195367;28;20030;-78
2022/05/06 04:50:14;;;;;;;34.07;18.90;;;;;;;10.43;86.59;102473.91;5189610;28;20037;-78
2022/05/06 04:52:45;;;;;;;25.93;17.20;;;;;;;10.65;85.64;102453.97;5191030;28;20039;-77
2022/05/06 04:55:16;;;;;;;21.43;18.30;;;;;;;10.71;86.31;102473.00;5189368;28;20026;-77
2022/05/06 04:57:48;;;;;;;26.47;19.47;;;;;;;10.81;86.25;102482.25;5190675;28;20034;-77
2022/05/06 05:00:21;;;;;;;37.10;19.10;;;;;;;10.79;86.01;102476.22;5190400;28;20084;-78
2022/05/06 05:02:52;;;;;;;36.07;17.37;;;;;;;10.74;85.19;102480.75;5191587;28;20034;-77
2022/05/06 05:05:24;;;;;;;40.97;19.33;;;;;;;10.70;86.15;102476.53;5190824;28;20050;-77
2022/05/06 05:07:55;;;;;;;45.97;18.50;;;;;;;10.56;86.82;102475.22;5190192;28;20026;-84
2022/05/06 05:10:27;;;;;;;19.67;17.23;;;;;;;10.58;86.68;102476.03;5191229;28;20045;-81
2022/05/06 05:12:58;;;;;;;23.20;19.00;;;;;;;10.75;86.07;102485.94;5194138;28;20057;-86
2022/05/06 05:15:30;;;;;;;18.93;16.60;;;;;;;10.79;85.94;102494.56;5203238;28;20077;-87
2022/05/06 05:18:01;;;;;;;32.27;18.70;;;;;;;10.75;86.16;102498.19;5197416;28;20026;-81
2022/05/06 05:20:32;;;;;;;22.90;18.83;;;;;;;10.84;86.65;102497.88;5199756;28;20885;-78
2022/05/06 05:23:04;;;;;;;35.17;19.50;;;;;;;10.58;87.69;102499.59;5190408;28;20037;-75
2022/05/06 05:25:35;;;;;;;27.37;18.50;;;;;;;10.68;87.61;102502.81;5188856;28;20052;-75
2022/05/06 05:28:06;;;;;;;28.63;18.03;;;;;;;10.71;86.70;102496.59;5204857;28;20030;-76
2022/05/06 05:30:38;;;;;;;27.40;18.93;;;;;;;10.50;88.13;102501.63;5190439;28;20022;-75
2022/05/06 05:33:09;;;;;;;33.37;19.47;;;;;;;10.69;87.37;102495.78;5192305;28;20034;-76
2022/05/06 05:35:40;;;;;;;26.07;18.40;;;;;;;10.70;88.07;102498.34;5191353;28;20027;-78
2022/05/06 05:38:12;;;;;;;33.87;20.23;;;;;;;10.81;88.07;102497.97;5190150;28;20081;-78
2022/05/06 05:40:43;;;;;;;34.07;21.80;;;;;;;10.85;87.95;102490.88;5191892;28;20033;-74
2022/05/06 05:48:55;;;;;;;25.80;20.87;;;;;;;10.73;90.33;102502.63;5189834;28;20038;-78
2022/05/06 05:51:26;;;;;;;35.17;23.40;;;;;;;10.93;89.30;102511.56;5185162;28;20478;-78
2022/05/06 05:53:57;;;;;;;29.30;21.97;;;;;;;10.81;90.21;102491.88;5189135;28;20034;-78
2022/05/06 05:56:29;;;;;;;33.03;21.87;;;;;;;10.83;90.18;102497.94;5188223;28;20057;-78
2022/05/06 05:59:00;;;;;;;28.40;22.00;;;;;;;10.80;90.87;102498.91;5169447;28;20030;-76
2022/05/06 06:01:31;;;;;;;27.37;23.27;;;;;;;11.06;90.48;102496.28;5188048;28;20034;-76
2022/05/06 06:04:03;;;;;;;25.40;21.70;;;;;;;10.98;90.38;102499.16;5189071;28;20479;-77
2022/05/06 06:06:34;;;;;;;29.27;24.67;;;;;;;10.83;91.73;102496.16;5154506;28;20034;-76
2022/05/06 06:09:05;;;;;;;27.00;22.87;;;;;;;10.89;91.87;102485.47;5180110;28;20034;-77
2022/05/06 06:11:37;;;;;;;29.83;22.63;;;;;;;11.02;91.81;102492.91;5188417;28;20133;-76
2022/05/06 06:14:08;;;;;;;36.87;25.47;;;;;;;11.18;90.64;102495.84;5192618;28;20038;-76
2022/05/06 06:16:39;;;;;;;33.80;24.87;;;;;;;11.21;89.87;102493.09;5192237;28;20030;-77
2022/05/06 06:19:11;;;;;;;39.67;27.27;;;;;;;11.19;90.23;102497.53;5202647;28;20049;-75
2022/05/06 06:21:42;;;;;;;39.70;26.43;;;;;;;11.01;90.65;102476.31;5196346;28;20049;-77
2022/05/06 06:24:14;;;;;;;33.30;26.97;;;;;;;11.05;90.84;102490.16;5190715;28;20089;-76
2022/05/06 06:26:46;;;;;;;30.83;24.83;;;;;;;11.13;90.07;102475.03;5197877;28;20058;-77
2022/05/06 06:29:17;;;;;;;35.00;26.80;;;;;;;11.16;90.39;102487.16;5199230;28;20033;-72
2022/05/06 06:31:48;;;;;;;36.83;26.37;;;;;;;11.41;89.75;102490.66;5217320;28;20492;-76
2022/05/06 06:34:20;;;;;;;41.80;28.60;;;;;;;11.41;89.73;102495.91;5187725;28;20428;-76
2022/05/06 06:36:51;;;;;;;42.93;28.10;;;;;;;11.38;89.68;102483.75;5187903;28;20050;-76
2022/05/06 06:39:22;;;;;;;37.83;29.07;;;;;;;11.45;90.29;102490.47;5186759;28;20035;-76
2022/05/06 06:41:54;;;;;;;37.73;28.03;;;;;;;11.53;89.73;102478.84;5186037;28;20022;-77
2022/05/06 06:44:25;;;;;;;52.23;30.93;;;;;;;11.53;90.10;102490.22;5186776;28;20026;-76
2022/05/06 06:46:56;;;;;;;46.37;30.53;;;;;;;11.57;90.10;102491.78;5189090;28;20113;-76
2022/05/06 06:49:28;;;;;;;42.37;30.80;;;;;;;11.60;90.04;102494.31;5205951;28;20050;-77
2022/05/06 06:51:59;;;;;;;41.20;30.00;;;;;;;11.56;89.66;102495.34;5168558;28;20634;-77
2022/05/06 06:54:30;;;;;;;39.97;28.23;;;;;;;11.69;89.21;102500.13;5191496;28;20458;-78
2022/05/06 06:57:02;;;;;;;36.77;30.13;;;;;;;11.62;89.78;102505.59;5191957;28;20026;-77
2022/05/06 06:59:33;;;;;;;38.07;29.33;;;;;;;11.61;89.70;102509.13;5192457;28;20081;-77
2022/05/06 07:02:04;;;;;;;38.07;29.03;;;;;;;11.58;90.65;102509.25;5190207;28;21065;-76
2022/05/06 07:04:36;;;;;;;35.63;28.13;;;;;;;11.82;89.34;102517.09;5192996;28;20236;-77
2022/05/06 07:12:47;;;;;;;36.80;27.73;;;;;;;11.82;89.95;102522.38;5191892;28;20720;-77
2022/05/06 07:15:18;;;;;;;41.33;28.93;;;;;;;11.89;89.85;102516.88;5210952;28;20069;-77
2022/05/06 07:17:50;;;;;;;37.67;28.83;;;;;;;11.88;89.66;102518.66;5196590;28;20030;-78
2022/05/06 07:20:21;;;;;;;33.23;26.83;;;;;;;12.00;88.34;102519.94;5208458;28;20440;-76
2022/05/06 07:22:52;;;;;;;36.57;27.40;;;;;;;11.97;88.26;102522.69;5192137;28;20034;-76
2022/05/06 07:25:24;;;;;;;35.00;26.87;;;;;;;12.00;88.45;102519.94;5197695;28;20042;-76
2022/05/06 07:27:55;;;;;;;36.27;27.07;;;;;;;11.91;89.76;102522.91;5209344;28;20034;-77
2022/05/06 07:30:26;;;;;;;37.43;27.77;;;;;;;12.13;88.40;102524.75;5190172;28;20470;-76
2022/05/06 07:32:58;;;;;;;36.27;27.83;;;;;;;12.21;87.62;102538.44;5188455;28;20406;-76
2022/05/06 07:35:30;;;;;;;33.90;26.57;;;;;;;12.18;88.57;102544.66;5191085;28;20058;-76
2022/05/06 07:38:01;;;;;;;33.73;27.07;;;;;;;12.23;87.31;102549.75;5190938;28;20142;-75
2022/05/06 07:40:32;;;;;;;34.13;26.57;;;;;;;12.15;87.41;102552.66;5192507;28;20035;-76
2022/05/06 07:43:04;;;;;;;38.63;26.87;;;;;;;12.12;87.52;102551.91;5186859;28;20135;-75
2022/05/06 07:45:35;;;;;;;32.47;27.53;;;;;;;12.25;86.82;102554.94;5192486;28;20034;-76
2022/05/06 07:48:08;;;;;;;36.63;27.17;;;;;;;12.21;87.13;102560.31;5190195;28;20646;-76
2022/05/06 07:50:44;;;;;;;38.53;29.13;;;;;;;12.18;88.41;102563.03;5203125;28;20042;-75
2022/05/06 07:53:16;;;;;;;36.70;27.10;;;;;;;12.29;87.55;102562.63;5186661;28;20116;-76
2022/05/06 07:55:47;;;;;;;39.20;29.50;;;;;;;12.36;86.99;102562.38;5192039;28;20030;-76
2022/05/06 07:58:19;;;;;;;40.40;29.53;;;;;;;12.40;86.92;102562.19;5191216;28;20038;-76
2022/05/06 08:00:50;;;;;;;38.70;30.43;;;;;;;12.37;87.11;102559.69;5190978;28;20026;-76
2022/05/06 08:06:12;;;;;;;40.43;29.40;;;;;;;12.52;86.22;102563.47;5190627;28;20046;-76
2022/05/06 08:08:43;;;;;;;41.83;31.50;;;;;;;12.47;86.42;102565.44;5192135;28;20027;-76
2022/05/06 08:11:14;;;;;;;38.30;30.13;;;;;;;12.42;87.00;102570.00;5191597;28;20023;-75
2022/05/06 08:13:45;;;;;;;38.07;27.43;;;;;;;12.38;86.43;102565.78;5192858;28;20030;-77
2022/05/06 08:16:18;;;;;;;35.03;28.30;;;;;;;12.38;86.67;102581.56;5194455;28;20085;-75
2022/05/06 08:18:50;;;;;;;37.57;28.23;;;;;;;12.48;86.34;102575.00;5190987;28;20042;-77
2022/05/06 08:21:22;;;;;;;36.67;29.00;;;;;;;12.49;86.64;102582.00;5190867;28;20022;-76
2022/05/06 08:23:54;;;;;;;35.07;28.73;;;;;;;12.42;86.69;102576.13;5188882;28;20036;-77
2022/05/06 08:26:25;;;;;;;33.33;27.50;;;;;;;12.63;86.62;102567.44;5191251;28;20030;-77
2022/05/06 08:28:56;;;;;;;36.00;27.63;;;;;;;12.79;84.84;102571.13;5190572;28;20033;-77
2022/05/06 08:31:27;;;;;;;38.37;28.67;;;;;;;12.70;85.40;102567.13;5189570;28;20140;-77
2022/05/06 08:33:59;;;;;;;39.10;29.73;;;;;;;12.83;84.18;102562.19;5186920;28;20561;-77
2022/05/06 08:36:30;;;;;;;38.57;28.47;;;;;;;12.85;84.24;102562.13;5189161;28;20042;-78
2022/05/06 08:39:03;;;;;;;34.43;27.57;;;;;;;13.04;83.68;102553.44;5189952;28;20546;-77
2022/05/06 08:41:38;;;;;;;33.60;26.53;;;;;;;13.31;83.41;102551.41;5190171;28;20030;-81
2022/05/06 08:52:43;;;;;;;34.47;27.40;;;;;;;13.70;79.70;102540.94;5189158;28;20121;-77
2022/05/06 08:55:14;;;;;;;33.53;27.17;;;;;;;13.83;78.89;102524.59;5188723;28;20035;-72
2022/05/06 08:57:45;;;;;;;31.40;26.73;;;;;;;14.32;77.72;102538.97;5189505;28;20483;-77
2022/05/06 09:00:22;;;;;;;31.60;27.07;;;;;;;14.82;76.38;102547.13;5205791;28;20521;-70
2022/05/06 09:02:54;;;;;;;37.77;27.50;;;;;;;15.24;75.21;102539.69;5189014;28;20065;-74
2022/05/06 09:05:26;;;;;;;29.47;24.93;;;;;;;16.34;73.61;102537.28;5190490;28;20031;-73
2022/05/06 09:07:59;;;;;;;30.27;24.67;;;;;;;17.17;68.73;102538.63;5190541;28;20025;-75
2022/05/06 09:10:31;;;;;;;24.65;22.05;;;;;;;17.74;64.25;102536.03;5190087;28;20560;-75
2022/05/06 09:13:02;;;;;;;28.37;22.40;;;;;;;18.84;62.39;102539.56;5189691;28;20010;-76
2022/05/06 09:18:24;;;;;;;23.13;20.73;;;;;;;19.73;55.71;102536.06;5190440;28;20432;-74
2022/05/06 09:21:16;;;;;;;22.03;19.70;;;;;;;20.46;58.15;102516.59;5190438;28;20034;-68
2022/05/06 09:23:47;;;;;;;20.00;17.83;;;;;;;21.22;52.90;102528.59;5201588;28;20046;-69
2022/05/06 09:26:19;;;;;;;20.83;18.83;;;;;;;21.71;51.66;102525.59;5190753;28;20465;-70
2022/05/06 09:28:50;;;;;;;21.13;18.92;;;;;;;22.29;49.36;102526.28;5186600;28;20030;-74
2022/05/06 09:31:25;;;;;;;20.77;18.08;;;;;;;22.65;48.50;102528.66;5189830;28;20065;-76
2022/05/06 09:34:09;;;;;;;19.27;17.40;;;;;;;23.25;49.41;102515.59;5205698;28;20046;-73
2022/05/06 09:36:40;;;;;;;19.27;17.35;;;;;;;23.77;45.62;102517.28;5189199;28;20716;-74
2022/05/06 09:39:12;;;;;;;18.65;16.75;;;;;;;24.03;44.78;102514.03;5190006;28;20034;-77
2022/05/06 09:41:43;;;;;;;17.40;15.60;;;;;;;23.72;43.53;102517.66;5187360;28;20037;-72
2022/05/06 09:44:21;;;;;;;17.05;15.45;;;;;;;23.53;43.49;102523.81;5187983;28;20062;-72
2022/05/06 09:47:10;;;;;;;17.02;14.90;;;;;;;25.13;43.95;102520.88;5189571;28;20053;-73
2022/05/06 09:49:42;;;;;;;18.10;16.20;;;;;;;24.37;40.92;102521.63;5189721;28;20130;-72
2022/05/06 09:52:14;;;;;;;17.08;15.27;;;;;;;24.23;41.49;102497.97;5186569;28;21170;-71
2022/05/06 09:54:48;;;;;;;17.08;15.02;;;;;;;25.43;39.93;102510.81;5188600;28;20049;-74
2022/05/06 09:57:19;;;;;;;18.30;14.80;;;;;;;25.56;39.01;102515.81;5187450;28;20038;-73
2022/05/06 09:59:50;;;;;;;13.20;11.90;;;;;;;25.07;38.70;102516.94;5189795;28;20033;-73
2022/05/06 10:02:22;;;;;;;14.88;13.55;;;;;;;24.76;38.96;102514.50;5186660;28;20161;-78
2022/05/06 10:04:54;;;;;;;14.82;13.20;;;;;;;25.86;38.23;102521.00;5204772;28;20033;-77
2022/05/06 10:07:26;;;;;;;14.07;12.77;;;;;;;25.74;37.81;102518.53;5189336;28;20489;-71
2022/05/06 10:10:01;;;;;;;14.88;13.48;;;;;;;25.73;37.20;102521.38;5189689;28;20025;-73
2022/05/06 10:12:39;;;;;;;14.93;13.43;;;;;;;25.91;37.66;102517.84;5184723;28;20034;-72
2022/05/06 10:15:13;;;;;;;13.25;11.15;;;;;;;26.78;35.60;102525.22;5194375;28;20061;-76
2022/05/06 10:17:50;;;;;;;11.27;9.85;;;;;;;27.30;35.55;102510.00;5194952;28;20026;-74
2022/05/06 10:20:34;;;;;;;10.15;8.75;;;;;;;27.83;35.32;102506.25;5194066;28;20042;-72
2022/05/06 10:23:11;;;;;;;;;;;;;;;28.76;35.16;102502.44;5184023;28;20044;-72
2022/05/06 10:25:42;;;;;;;5.15;4.65;;;;;;;26.91;32.81;102505.13;5189170;28;19925;-73
2022/05/06 10:34:14;;;;;;;6.07;3.80;;;;;;;28.53;31.27;102496.94;5187462;28;20113;-71
2022/05/06 10:36:46;;;;;;;;;;;;;;;29.53;32.29;102496.47;5189223;28;20032;-70
2022/05/06 10:39:21;;;;;;;5.43;4.93;;;;;;;28.93;31.14;102492.41;5188271;28;19910;-72
2022/05/06 10:42:06;;;;;;;7.72;5.80;;;;;;;28.68;32.86;102495.19;5186951;28;20037;-73
2022/05/06 10:44:40;;;;;;;2.35;2.08;;;;;;;29.16;28.77;102496.19;5188681;28;20050;-71
2022/05/06 10:47:11;;;;;;;4.90;3.38;;;;;;;28.02;30.02;102483.53;5190450;28;20030;-71
2022/05/06 10:49:51;;;;;;;8.27;5.15;;;;;;;27.94;30.33;102480.84;5187889;28;20045;-71
2022/05/06 10:52:24;;;;;;;7.25;5.65;;;;;;;28.78;30.37;102468.06;5185895;28;20673;-81
2022/05/06 10:55:00;;;;;;;6.68;5.70;;;;;;;28.03;30.76;102474.41;5188688;28;20523;-83
2022/05/06 10:57:45;;;;;;;8.25;5.32;;;;;;;28.95;31.02;102466.13;5187633;28;20031;-80
2022/05/06 11:00:17;;;;;;;7.15;5.88;;;;;;;28.13;30.65;102465.34;5186418;28;20473;-75
2022/05/06 11:02:49;;;;;;;7.30;6.15;;;;;;;27.98;31.59;102459.81;5186366;28;20037;-81
2022/05/06 11:05:21;;;;;;;6.75;5.82;;;;;;;28.56;31.28;102467.78;5187944;28;21406;-81
2022/05/06 11:07:55;;;;;;;7.50;5.65;;;;;;;28.80;30.44;102462.47;5189727;28;20535;-81
2022/05/06 11:10:29;;;;;;;8.13;7.35;;;;;;;28.93;30.35;102472.69;5188460;28;20485;-84
2022/05/06 11:13:07;;;;;;;8.57;7.57;;;;;;;28.80;30.14;102467.88;5185578;28;20038;-80
2022/05/06 11:15:39;;;;;;;9.73;6.47;;;;;;;28.43;29.52;102468.34;5174551;28;20051;-73
2022/05/06 11:18:10;;;;;;;7.18;6.45;;;;;;;27.75;30.85;102460.50;5173735;28;20089;-85
2022/05/06 11:20:41;;;;;;;7.13;6.25;;;;;;;27.22;30.91;102455.34;5180022;28;20128;-84
2022/05/06 11:23:14;;;;;;;7.15;6.55;;;;;;;27.81;30.36;102451.72;5175421;28;20864;-81
2022/05/06 11:25:47;;;;;;;8.57;7.78;;;;;;;27.24;32.02;102451.50;5179840;28;20031;-75
2022/05/06 11:28:20;;;;;;;;;;;;;;;28.79;30.33;102450.00;5177677;28;20062;-74
2022/05/06 11:30:53;;;;;;;8.50;7.70;;;;;;;27.99;30.28;102448.88;5179286;28;19926;-74
2022/05/06 11:33:31;;;;;;;7.97;7.28;;;;;;;26.37;32.21;102449.75;5175304;28;20062;-75
2022/05/06 11:36:05;;;;;;;8.40;6.53;;;;;;;27.63;31.10;102444.63;5179694;28;20073;-80
2022/05/06 11:38:38;;;;;;;14.50;7.47;;;;;;;27.17;30.81;102443.25;5180514;28;20039;-77
2022/05/06 11:41:12;;;;;;;11.07;7.43;;;;;;;27.43;30.44;102436.03;5179358;28;20129;-73
2022/05/06 11:43:44;;;;;;;10.65;7.50;;;;;;;27.47;31.38;102434.72;5179491;28;20952;-75
2022/05/06 11:49:08;;;;;;;11.55;7.05;;;;;;;27.11;31.33;102435.81;5183014;28;20038;-74
2022/05/06 11:51:43;;;;;;;9.43;7.28;;;;;;;26.70;32.50;102431.97;5181605;28;20030;-76
2022/05/06 11:54:16;;;;;;;9.40;7.07;;;;;;;26.03;33.14;102424.50;5180835;28;20152;-77
2022/05/06 11:56:47;;;;;;;7.68;6.15;;;;;;;26.60;33.05;102425.03;5180232;28;20038;-76
2022/05/06 11:59:20;;;;;;;6.72;6.03;;;;;;;26.96;32.28;102430.22;5178811;28;20038;-80
2022/05/06 12:01:52;;;;;;;7.22;6.47;;;;;;;26.16;31.36;102421.41;5179466;28;20484;-79
2022/05/06 12:04:28;;;;;;;7.10;6.03;;;;;;;27.06;31.49;102422.03;5180233;28;20555;-80
2022/05/06 12:07:00;;;;;;;7.55;6.68;;;;;;;26.30;31.97;102420.84;5181584;28;20112;-73
2022/05/06 12:09:41;;;;;;;9.02;6.32;;;;;;;26.49;33.11;102418.09;5179059;28;20043;-78
2022/05/06 12:12:12;;;;;;;7.60;6.55;;;;;;;25.27;33.59;102408.75;5178186;28;20648;-78
2022/05/06 12:14:44;;;;;;;8.57;5.55;;;;;;;25.43;33.05;102394.69;5180016;28;20213;-80